Time;durP1;ratioP1;P1;durP2;ratioP2;P2;SDS_P1;SDS_P2;PMS_P1;PMS_P2;Temp;Humidity;BMP_temperature;BMP_pressure;BME280_temperature;BME280_humidity;BME280_pressure;Samples;Min_cycle;Max_cycle;Signal;HPM_P1;HPM_P2
2024/01/23 00:00:24;;;;;;;3.83;2.40;;;;;;;6.40;82.41;96800.22;5025330;28;20303;-68
2024/01/23 00:02:50;;;;;;;2.60;2.00;;;;;;;6.42;82.07;96809.72;5025882;28;20183;-68
2024/01/23 00:05:15;;;;;;;3.50;2.47;;;;;;;6.36;82.50;96810.72;5025857;28;20187;-68
2024/01/23 00:07:40;;;;;;;6.20;2.53;;;;;;;6.33;82.57;96809.91;5025854;28;20191;-68
2024/01/23 00:10:06;;;;;;;3.20;2.27;;;;;;;6.40;82.69;96797.59;5025495;28;20190;-69
2024/01/23 00:12:32;;;;;;;3.20;2.27;;;;;;;6.36;82.35;96794.22;5025733;28;20190;-68
2024/01/23 00:14:58;;;;;;;4.90;2.30;;;;;;;6.35;82.35;96792.50;5025595;28;20211;-67
2024/01/23 00:17:24;;;;;;;2.00;1.80;;;;;;;6.30;82.28;96797.78;5025576;28;20654;-67
2024/01/23 00:19:49;;;;;;;3.60;1.80;;;;;;;6.23;82.07;96780.56;5026114;28;20558;-68
2024/01/23 00:22:15;;;;;;;3.30;2.13;;;;;;;6.28;81.68;96791.78;5026593;28;20188;-67
2024/01/23 00:24:40;;;;;;;2.23;2.00;;;;;;;6.35;80.48;96802.91;5026146;28;20271;-69
2024/01/23 00:27:05;;;;;;;1.90;1.70;;;;;;;6.57;80.29;96808.56;5025890;28;20631;-66
2024/01/23 00:29:33;;;;;;;3.63;1.60;;;;;;;6.33;80.12;96825.53;5025347;28;20171;-66
2024/01/23 00:31:58;;;;;;;4.10;1.63;;;;;;;6.28;79.90;96811.75;5025657;28;20191;-67
2024/01/23 00:34:23;;;;;;;3.10;1.70;;;;;;;6.32;78.87;96813.41;5025395;28;20956;-67
2024/01/23 00:36:49;;;;;;;1.93;1.40;;;;;;;6.27;78.57;96817.88;5026362;28;20199;-69
2024/01/23 00:39:14;;;;;;;1.63;1.33;;;;;;;6.28;77.96;96814.34;5025564;28;20230;-68
2024/01/23 00:41:39;;;;;;;1.70;1.23;;;;;;;6.21;77.92;96811.00;5025738;28;20753;-68
2024/01/23 00:44:05;;;;;;;2.30;1.30;;;;;;;6.29;76.97;96809.13;5025639;28;20646;-68
2024/01/23 00:46:30;;;;;;;1.43;1.13;;;;;;;6.42;76.33;96803.66;5025648;28;20262;-69
2024/01/23 00:48:56;;;;;;;2.93;1.60;;;;;;;6.41;76.02;96804.56;5025669;28;20262;-68
2024/01/23 00:51:21;;;;;;;1.80;1.33;;;;;;;6.25;76.38;96817.03;5025654;28;20667;-68
2024/01/23 00:53:46;;;;;;;2.60;1.17;;;;;;;6.24;76.64;96812.72;5025638;28;20175;-67
2024/01/23 00:56:12;;;;;;;3.30;1.40;;;;;;;6.25;75.84;96822.25;5025567;28;20864;-67
2024/01/23 00:58:37;;;;;;;3.77;1.90;;;;;;;6.23;75.64;96824.03;5025767;28;20199;-67
2024/01/23 01:01:03;;;;;;;1.30;1.20;;;;;;;6.33;74.48;96833.38;5025750;28;20260;-68
2024/01/23 01:03:29;;;;;;;2.67;1.20;;;;;;;6.26;74.62;96839.59;5029296;28;20171;-68
2024/01/23 01:05:55;;;;;;;2.90;1.10;;;;;;;6.29;75.07;96835.19;5029193;28;20803;-66
2024/01/23 01:08:20;;;;;;;2.73;1.10;;;;;;;6.28;75.34;96837.81;5029640;28;20414;-68
2024/01/23 01:10:47;;;;;;;1.60;1.20;;;;;;;6.08;76.35;96831.25;5029211;28;20210;-68
2024/01/23 01:13:12;;;;;;;5.00;1.10;;;;;;;6.08;76.31;96831.25;5029090;28;20318;-67
2024/01/23 01:15:38;;;;;;;3.60;1.40;;;;;;;5.95;76.82;96834.97;5038864;28;20418;-68
2024/01/23 01:18:05;;;;;;;3.77;1.50;;;;;;;6.15;76.35;96838.06;5044594;28;20536;-67
2024/01/23 01:20:30;;;;;;;1.63;1.17;;;;;;;6.02;76.09;96836.56;5046122;28;20196;-68
2024/01/23 01:22:56;;;;;;;2.00;1.20;;;;;;;5.97;76.54;96833.19;5039078;28;20413;-69
2024/01/23 01:25:21;;;;;;;1.97;1.10;;;;;;;5.95;76.03;96850.59;5029844;28;20612;-67
2024/01/23 01:27:47;;;;;;;2.23;1.33;;;;;;;6.17;75.98;96834.59;5028925;28;20183;-65
2024/01/23 01:30:12;;;;;;;1.53;1.23;;;;;;;6.21;74.91;96838.81;5028165;28;20179;-68
2024/01/23 01:32:38;;;;;;;2.17;1.37;;;;;;;6.22;75.12;96836.19;5028546;28;20546;-66
2024/01/23 01:35:03;;;;;;;1.50;1.40;;;;;;;6.26;75.42;96832.66;5028640;28;20253;-66
2024/01/23 01:37:29;;;;;;;2.20;1.57;;;;;;;6.00;76.19;96835.75;5027855;28;21239;-66
2024/01/23 01:39:54;;;;;;;1.20;1.10;;;;;;;6.09;76.43;96845.13;5027713;28;20203;-67
2024/01/23 01:42:20;;;;;;;2.97;1.40;;;;;;;5.99;76.14;96841.00;5027951;28;20199;-68
2024/01/23 01:44:45;;;;;;;1.93;1.20;;;;;;;6.13;76.03;96839.84;5027850;28;20194;-67
2024/01/23 01:47:11;;;;;;;3.53;1.60;;;;;;;5.99;76.40;96825.38;5027430;28;20179;-66
2024/01/23 01:49:37;;;;;;;2.40;1.60;;;;;;;6.03;76.33;96833.09;5027711;28;20171;-67
2024/01/23 01:52:03;;;;;;;1.83;1.53;;;;;;;6.07;76.57;96829.56;5026332;28;20192;-67
2024/01/23 01:54:29;;;;;;;3.00;1.73;;;;;;;6.12;76.59;96845.09;5027506;28;20497;-67
2024/01/23 01:56:55;;;;;;;2.97;1.43;;;;;;;6.17;76.56;96842.41;5027782;28;20544;-67
2024/01/23 01:59:20;;;;;;;2.70;1.57;;;;;;;6.08;76.50;96836.47;5028121;28;20835;-67
2024/01/23 02:01:46;;;;;;;2.03;1.40;;;;;;;5.99;76.87;96852.28;5030567;28;20191;-66
2024/01/23 02:04:11;;;;;;;4.50;1.87;;;;;;;5.87;77.82;96868.09;5031987;28;20268;-67
2024/01/23 02:06:37;;;;;;;4.10;2.03;;;;;;;5.94;77.31;96865.38;5027769;28;20178;-68
2024/01/23 02:09:02;;;;;;;6.43;2.30;;;;;;;5.85;77.23;96875.91;5027634;28;20171;-66
2024/01/23 02:11:28;;;;;;;3.30;1.90;;;;;;;5.86;76.98;96871.59;5027450;28;20191;-68
2024/01/23 02:13:53;;;;;;;2.23;1.40;;;;;;;5.83;77.35;96869.88;5027280;28;20167;-67
2024/01/23 02:16:19;;;;;;;5.00;2.73;;;;;;;5.85;77.31;96886.34;5027654;28;20182;-68
2024/01/23 02:18:45;;;;;;;3.60;1.83;;;;;;;5.83;77.13;96882.03;5027536;28;20268;-68
2024/01/23 02:21:12;;;;;;;3.80;1.53;;;;;;;5.94;76.48;96883.59;5026827;28;20308;-69
2024/01/23 02:23:37;;;;;;;3.63;1.60;;;;;;;6.00;75.71;96898.28;5027418;28;20271;-69
2024/01/23 02:26:03;;;;;;;2.13;1.20;;;;;;;5.85;76.10;96894.16;5028541;28;20423;-66
2024/01/23 02:28:28;;;;;;;2.80;1.57;;;;;;;5.89;75.95;96881.94;5027010;28;20182;-66
2024/01/23 02:30:54;;;;;;;3.93;1.60;;;;;;;6.05;75.08;96882.56;5028189;28;20760;-67
2024/01/23 02:33:19;;;;;;;2.73;1.20;;;;;;;5.98;74.86;96887.03;5027980;28;20516;-67
2024/01/23 02:35:45;;;;;;;11.97;1.87;;;;;;;6.00;74.73;96884.38;5028650;28;20168;-67
2024/01/23 02:38:10;;;;;;;1.80;1.13;;;;;;;5.83;75.33;96898.53;5028245;28;20211;-66
2024/01/23 02:40:36;;;;;;;4.10;1.80;;;;;;;5.90;75.31;96892.31;5028940;28;20187;-68
2024/01/23 02:43:01;;;;;;;2.40;1.50;;;;;;;5.88;75.15;96881.09;5028168;28;20170;-67
2024/01/23 02:45:27;;;;;;;1.80;1.20;;;;;;;5.67;75.72;96882.31;5027696;28;20690;-68
2024/01/23 02:47:52;;;;;;;5.67;2.07;;;;;;;5.82;75.11;96896.81;5027241;28;20233;-67
2024/01/23 02:50:18;;;;;;;3.37;1.40;;;;;;;5.79;75.27;96896.00;5026943;28;20175;-67
2024/01/23 02:52:43;;;;;;;2.97;1.50;;;;;;;5.83;74.99;96901.13;5026741;28;20183;-67
2024/01/23 02:55:09;;;;;;;2.37;1.37;;;;;;;5.84;74.74;96909.81;5026621;28;20175;-68
2024/01/23 02:57:34;;;;;;;2.60;1.53;;;;;;;5.70;75.50;96903.09;5026787;28;20696;-67
2024/01/23 03:00:00;;;;;;;3.87;1.30;;;;;;;5.67;76.12;96918.78;5025531;28;20206;-67
2024/01/23 03:02:25;;;;;;;4.80;1.70;;;;;;;5.65;75.90;96917.94;5027829;28;20250;-67
2024/01/23 03:04:51;;;;;;;2.77;1.27;;;;;;;5.78;75.98;96922.94;5028115;28;20176;-66
2024/01/23 03:07:17;;;;;;;3.17;1.30;;;;;;;5.71;76.12;96919.56;5028347;28;20206;-68
2024/01/23 03:09:43;;;;;;;4.70;1.50;;;;;;;5.88;75.82;96917.56;5028724;28;20245;-68
2024/01/23 03:12:19;;;;;;;2.20;1.30;;;;;;;5.85;75.67;96930.63;5028448;28;20434;-68
2024/01/23 03:14:46;;;;;;;1.77;1.57;;;;;;;5.85;75.57;96938.44;5029498;28;20183;-69
2024/01/23 03:17:12;;;;;;;2.63;1.93;;;;;;;5.76;75.64;96942.94;5028622;28;20502;-68
2024/01/23 03:19:38;;;;;;;2.90;1.60;;;;;;;5.81;75.71;96941.09;5027388;28;20465;-66
2024/01/23 03:22:04;;;;;;;3.47;1.57;;;;;;;5.85;74.81;96942.78;5027084;28;20194;-67
2024/01/23 03:24:29;;;;;;;3.20;1.30;;;;;;;5.74;75.60;96945.59;5026614;28;20407;-67
2024/01/23 03:26:55;;;;;;;3.83;1.77;;;;;;;5.75;75.11;96938.63;5027266;28;20449;-67
2024/01/23 03:29:21;;;;;;;3.30;1.30;;;;;;;5.90;74.72;96941.81;5027441;28;20247;-68
2024/01/23 03:31:46;;;;;;;3.83;1.70;;;;;;;5.68;75.15;96941.31;5027544;28;20434;-68
2024/01/23 03:34:11;;;;;;;4.60;1.80;;;;;;;5.68;75.66;96943.06;5028564;28;20199;-66
2024/01/23 03:36:37;;;;;;;2.30;1.90;;;;;;;5.73;75.44;96944.69;5028489;28;20967;-66
2024/01/23 03:39:02;;;;;;;5.43;1.83;;;;;;;5.75;75.62;96960.31;5027988;28;20200;-67
2024/01/23 03:41:29;;;;;;;4.27;2.10;;;;;;;5.65;76.05;96957.00;5028625;28;20268;-67
2024/01/23 03:43:55;;;;;;;3.03;2.00;;;;;;;5.60;76.24;96956.22;5028079;28;20455;-67
2024/01/23 03:46:20;;;;;;;6.10;1.90;;;;;;;5.47;76.50;96963.31;5027867;28;20498;-67
2024/01/23 03:48:46;;;;;;;3.37;1.70;;;;;;;5.46;77.22;96965.97;5027075;28;20172;-67
2024/01/23 03:51:11;;;;;;;2.07;1.60;;;;;;;5.44;77.45;96965.97;5026557;28;20196;-67
2024/01/23 03:53:36;;;;;;;2.70;1.57;;;;;;;5.39;77.69;96973.00;5028256;28;20243;-66
2024/01/23 03:56:02;;;;;;;3.50;1.80;;;;;;;5.41;77.10;96975.56;5028337;28;20172;-66
2024/01/23 03:58:27;;;;;;;5.63;1.63;;;;;;;5.43;77.47;96966.88;5028630;28;20286;-66
2024/01/23 04:00:53;;;;;;;3.27;1.60;;;;;;;5.31;77.76;96967.03;5027908;28;20191;-68
2024/01/23 04:03:18;;;;;;;3.67;1.60;;;;;;;5.45;77.20;96978.09;5026380;28;20187;-67
2024/01/23 04:05:43;;;;;;;7.03;2.10;;;;;;;5.39;77.63;96977.34;5025972;28;20172;-68
2024/01/23 04:08:09;;;;;;;1.60;1.37;;;;;;;5.26;77.91;96964.50;5027197;28;20159;-68
2024/01/23 04:10:34;;;;;;;2.17;1.60;;;;;;;5.28;77.75;96982.69;5026592;28;20294;-66
2024/01/23 04:12:59;;;;;;;2.80;2.00;;;;;;;5.36;77.36;96977.38;5026902;28;20233;-68
2024/01/23 04:15:26;;;;;;;3.07;1.40;;;;;;;5.36;77.43;96966.97;5026991;28;20225;-67
2024/01/23 04:17:54;;;;;;;3.10;1.60;;;;;;;5.39;77.39;96972.16;5027684;28;20254;-69
2024/01/23 04:20:20;;;;;;;3.07;1.87;;;;;;;5.32;77.67;96975.72;5026999;28;20454;-67
2024/01/23 04:22:45;;;;;;;1.90;1.60;;;;;;;5.30;78.04;96966.19;5026787;28;20457;-67
2024/01/23 04:25:12;;;;;;;3.73;1.47;;;;;;;5.41;77.49;96972.97;5026202;28;20175;-68
2024/01/23 04:27:37;;;;;;;4.30;1.60;;;;;;;5.41;77.35;96984.25;5025173;28;21060;-67
2024/01/23 04:30:03;;;;;;;3.70;1.90;;;;;;;5.43;77.29;96979.91;5026504;28;20467;-67
2024/01/23 04:32:28;;;;;;;6.23;1.90;;;;;;;5.46;76.85;96979.84;5026218;28;20175;-67
2024/01/23 04:34:53;;;;;;;3.27;1.77;;;;;;;5.46;77.24;96976.38;5026723;28;20808;-67
2024/01/23 04:37:19;;;;;;;3.63;1.90;;;;;;;5.65;76.73;96977.81;5027383;28;20404;-67
2024/01/23 04:39:44;;;;;;;4.30;2.37;;;;;;;5.48;77.01;96974.59;5029384;28;20291;-66
2024/01/23 04:42:10;;;;;;;3.40;1.60;;;;;;;5.61;76.71;96985.69;5029414;28;20192;-67
2024/01/23 04:44:35;;;;;;;3.13;1.77;;;;;;;5.55;76.96;96986.66;5029576;28;20214;-66
2024/01/23 04:47:00;;;;;;;3.10;1.50;;;;;;;5.60;77.07;96989.16;5029201;28;20200;-67
2024/01/23 04:49:26;;;;;;;3.10;1.37;;;;;;;5.48;76.91;96992.81;5029706;28;20267;-67
2024/01/23 04:51:51;;;;;;;3.97;1.60;;;;;;;5.48;77.16;97008.44;5030284;28;20574;-67
2024/01/23 04:54:16;;;;;;;4.53;1.73;;;;;;;5.43;77.57;97020.66;5032737;28;20665;-67
2024/01/23 04:56:42;;;;;;;3.27;1.70;;;;;;;5.50;76.97;97014.47;5028530;28;20929;-68
2024/01/23 04:59:07;;;;;;;7.70;2.00;;;;;;;5.46;77.29;97015.44;5028651;28;20315;-67
2024/01/23 05:01:33;;;;;;;1.70;1.50;;;;;;;5.54;76.66;97029.19;5029083;28;20260;-66
2024/01/23 05:03:58;;;;;;;2.10;1.50;;;;;;;5.46;76.77;97020.63;5029702;28;20175;-66
2024/01/23 05:06:23;;;;;;;4.13;1.40;;;;;;;5.47;76.76;97022.34;5029166;28;20160;-67
2024/01/23 05:08:49;;;;;;;5.20;2.30;;;;;;;5.50;76.54;97007.56;5029270;28;20172;-68
2024/01/23 05:11:14;;;;;;;4.20;1.83;;;;;;;5.52;76.80;97023.13;5031102;28;20674;-67
2024/01/23 05:13:42;;;;;;;3.57;2.00;;;;;;;5.61;76.28;97030.81;5029549;28;20671;-66
2024/01/23 05:16:08;;;;;;;7.17;2.13;;;;;;;5.66;76.18;97033.34;5029179;28;20175;-66
2024/01/23 05:18:33;;;;;;;4.87;4.30;;;;;;;5.53;76.75;97045.69;5028864;28;20469;-67
2024/01/23 05:20:58;;;;;;;10.37;2.00;;;;;;;5.57;76.20;97044.75;5028827;28;20587;-68
2024/01/23 05:23:25;;;;;;;5.03;1.83;;;;;;;5.65;75.75;97045.53;5029178;28;20231;-66
2024/01/23 05:25:51;;;;;;;3.53;1.60;;;;;;;5.55;75.79;97059.56;5029427;28;20168;-67
2024/01/23 05:28:16;;;;;;;4.80;2.80;;;;;;;5.65;75.82;97063.75;5029257;28;20477;-68
2024/01/23 05:30:42;;;;;;;6.47;2.10;;;;;;;5.75;75.03;97071.44;5029338;28;20305;-68
2024/01/23 05:33:07;;;;;;;2.70;1.50;;;;;;;5.73;74.97;97069.69;5028712;28;20198;-67
2024/01/23 05:35:33;;;;;;;4.70;1.57;;;;;;;5.74;74.58;97070.59;5029256;28;20278;-68
2024/01/23 05:37:58;;;;;;;4.30;1.77;;;;;;;5.79;74.54;97067.88;5029544;28;20214;-67
2024/01/23 05:40:24;;;;;;;6.10;1.90;;;;;;;5.75;74.32;97076.66;5025336;28;20469;-67
2024/01/23 05:42:49;;;;;;;3.03;1.70;;;;;;;5.90;73.88;97079.00;5026931;28;20290;-68
2024/01/23 05:45:17;;;;;;;5.80;2.10;;;;;;;5.91;73.93;97092.03;5028009;28;20195;-67
2024/01/23 05:47:43;;;;;;;9.40;2.07;;;;;;;5.93;73.59;97110.25;5026978;28;20714;-68
2024/01/23 05:50:08;;;;;;;4.20;2.10;;;;;;;5.93;73.72;97126.75;5027890;28;20449;-67
2024/01/23 05:52:34;;;;;;;1.90;1.40;;;;;;;5.96;73.38;97132.81;5029740;28;20180;-68
2024/01/23 05:55:00;;;;;;;3.83;1.43;;;;;;;5.92;73.92;97138.03;5031513;28;20211;-67
2024/01/23 05:57:26;;;;;;;6.57;2.20;;;;;;;5.85;74.13;97146.81;5029330;28;20605;-66
2024/01/23 05:59:51;;;;;;;2.17;1.37;;;;;;;5.84;74.17;97158.13;5026721;28;20528;-66
2024/01/23 06:02:17;;;;;;;8.63;1.90;;;;;;;5.84;74.67;97170.28;5024950;28;20206;-66
2024/01/23 06:04:42;;;;;;;3.57;2.50;;;;;;;5.72;74.73;97177.38;5028893;28;20202;-67
2024/01/23 06:07:08;;;;;;;3.87;2.17;;;;;;;5.66;75.73;97172.22;5027520;28;20524;-69
2024/01/23 06:09:33;;;;;;;1.80;1.40;;;;;;;5.77;74.74;97173.84;5028179;28;20175;-68
2024/01/23 06:11:59;;;;;;;4.43;1.70;;;;;;;5.84;74.28;97191.13;5028794;28;20296;-66
2024/01/23 06:14:24;;;;;;;9.50;1.70;;;;;;;5.91;73.56;97177.13;5028044;28;20179;-65
2024/01/23 06:16:50;;;;;;;4.13;1.20;;;;;;;5.81;73.83;97159.88;5028701;28;20533;-66
2024/01/23 06:19:17;;;;;;;5.37;1.63;;;;;;;5.72;73.97;97174.75;5027584;28;20200;-66
2024/01/23 06:21:42;;;;;;;4.53;1.87;;;;;;;5.64;74.27;97184.38;5027771;28;20917;-68
2024/01/23 06:24:08;;;;;;;2.53;1.77;;;;;;;5.52;74.68;97193.22;5025673;28;20534;-67
2024/01/23 06:26:33;;;;;;;4.40;2.67;;;;;;;5.55;74.51;97201.88;5018125;28;20187;-67
2024/01/23 06:28:59;;;;;;;1.50;1.00;;;;;;;5.56;74.31;97209.66;5022611;28;20256;-68
2024/01/23 06:31:27;;;;;;;1.60;1.03;;;;;;;5.48;74.03;97214.09;5019083;28;20194;-68
2024/01/23 06:33:53;;;;;;;8.63;1.43;;;;;;;5.47;74.54;97212.38;5013265;28;20891;-68
2024/01/23 06:36:19;;;;;;;1.33;0.90;;;;;;;5.42;74.83;97220.22;5019146;28;20450;-68
2024/01/23 06:38:44;;;;;;;2.47;1.43;;;;;;;5.49;74.70;97221.88;5008677;28;20570;-67
2024/01/23 06:41:10;;;;;;;1.93;1.00;;;;;;;5.23;76.03;97239.50;5023258;28;20199;-65
2024/01/23 06:43:35;;;;;;;2.40;0.87;;;;;;;5.26;75.20;97231.66;5015514;28;20190;-66
2024/01/23 06:46:01;;;;;;;1.20;0.87;;;;;;;5.28;75.07;97240.31;5021698;28;20262;-68
2024/01/23 06:48:26;;;;;;;3.27;1.30;;;;;;;5.07;76.23;97255.25;5017909;28;20187;-68
2024/01/23 06:50:52;;;;;;;2.30;1.50;;;;;;;5.38;75.20;97254.09;5017727;28;20203;-66
2024/01/23 06:53:17;;;;;;;4.00;1.53;;;;;;;5.33;75.49;97277.56;5030149;28;20191;-67
2024/01/23 06:55:42;;;;;;;7.57;1.47;;;;;;;5.32;74.96;97283.66;5035178;28;20186;-68
2024/01/23 06:58:08;;;;;;;1.10;0.73;;;;;;;5.26;75.58;97289.78;5039200;28;20215;-67
2024/01/23 07:00:33;;;;;;;1.17;1.07;;;;;;;5.26;75.44;97283.72;5024830;28;20211;-67
2024/01/23 07:02:59;;;;;;;2.17;1.00;;;;;;;5.28;75.53;97280.22;5025451;28;20249;-66
2024/01/23 07:05:24;;;;;;;6.93;1.50;;;;;;;5.38;74.29;97280.13;5027633;28;20180;-67
2024/01/23 07:07:52;;;;;;;3.37;1.70;;;;;;;5.32;75.03;97280.22;5026228;28;20287;-68
2024/01/23 07:10:18;;;;;;;1.60;1.20;;;;;;;5.25;75.42;97293.25;5019002;28;20175;-68
2024/01/23 07:12:43;;;;;;;2.63;1.47;;;;;;;5.20;75.38;97308.06;5018922;28;20426;-67
2024/01/23 07:15:09;;;;;;;9.10;1.80;;;;;;;5.26;75.55;97300.19;5020124;28;20471;-67
2024/01/23 07:17:34;;;;;;;2.10;1.37;;;;;;;5.29;75.30;97313.19;5010925;28;21024;-66
2024/01/23 07:20:00;;;;;;;18.47;8.10;;;;;;;5.26;75.77;97323.59;5007296;28;20211;-67
2024/01/23 07:22:26;;;;;;;3.63;2.20;;;;;;;5.30;75.99;97340.06;5010111;28;20208;-66
2024/01/23 07:24:51;;;;;;;1.47;1.13;;;;;;;5.26;75.70;97353.97;5016628;28;20435;-66
2024/01/23 07:27:18;;;;;;;1.60;1.33;;;;;;;5.29;76.21;97356.53;5016369;28;20175;-67
2024/01/23 07:29:43;;;;;;;2.40;1.87;;;;;;;5.25;76.30;97352.25;5016036;28;20180;-67
2024/01/23 07:32:09;;;;;;;1.90;1.00;;;;;;;5.30;75.61;97350.47;5014011;28;20478;-67
2024/01/23 07:34:34;;;;;;;1.43;0.97;;;;;;;5.24;75.75;97346.19;5007312;28;21041;-67
2024/01/23 07:36:59;;;;;;;11.67;2.90;;;;;;;5.34;75.22;97356.50;5012495;28;20206;-67
2024/01/23 07:39:25;;;;;;;5.13;1.07;;;;;;;5.26;75.55;97364.38;5019132;28;20210;-67
2024/01/23 07:41:50;;;;;;;7.20;1.43;;;;;;;5.25;75.65;97370.47;5022006;28;20184;-66
2024/01/23 07:44:16;;;;;;;1.87;1.00;;;;;;;5.25;75.81;97381.75;5017166;28;20179;-67
2024/01/23 07:46:42;;;;;;;4.30;1.20;;;;;;;5.29;75.53;97386.06;5021081;28;20184;-68
2024/01/23 07:49:07;;;;;;;2.13;1.20;;;;;;;5.25;76.05;97384.34;5020980;28;20592;-66
2024/01/23 07:51:46;;;;;;;1.43;1.03;;;;;;;5.19;76.14;97399.13;5016211;28;20200;-67
2024/01/23 07:54:11;;;;;;;4.93;1.43;;;;;;;5.29;75.46;97396.47;5019619;28;20203;-67
2024/01/23 07:56:37;;;;;;;10.20;1.63;;;;;;;5.30;75.83;97398.19;5023057;28;20496;-67
2024/01/23 07:59:02;;;;;;;1.70;1.27;;;;;;;5.35;75.52;97400.75;5016079;28;20226;-68
2024/01/23 08:01:27;;;;;;;1.83;1.20;;;;;;;5.31;75.84;97401.63;5014896;28;20203;-66
2024/01/23 08:03:53;;;;;;;3.83;1.20;;;;;;;5.38;75.47;97412.88;5007398;28;20184;-66
2024/01/23 08:06:19;;;;;;;1.20;1.10;;;;;;;5.40;74.81;97424.16;5010995;28;21942;-68
2024/01/23 08:08:44;;;;;;;3.00;1.30;;;;;;;5.37;75.21;97426.78;5020973;28;20171;-67
2024/01/23 08:11:12;;;;;;;3.00;1.40;;;;;;;5.37;75.15;97435.44;5022464;28;20203;-67
2024/01/23 08:13:37;;;;;;;3.77;1.50;;;;;;;5.32;75.54;97436.38;5022035;28;20192;-68
2024/01/23 08:16:07;;;;;;;2.90;1.60;;;;;;;5.37;75.35;97437.19;5024924;28;20514;-68
2024/01/23 08:18:32;;;;;;;7.00;2.00;;;;;;;5.38;75.24;97431.09;5018309;28;20239;-67
2024/01/23 08:20:57;;;;;;;2.50;1.93;;;;;;;5.45;75.21;97438.84;5017222;28;20490;-67
2024/01/23 08:23:23;;;;;;;3.33;1.87;;;;;;;5.57;74.93;97434.44;5025332;28;20186;-65
2024/01/23 08:25:49;;;;;;;4.23;2.43;;;;;;;6.76;71.72;97437.66;5020483;28;20180;-68
2024/01/23 08:28:14;;;;;;;4.03;2.03;;;;;;;6.61;71.34;97441.28;5020498;28;20733;-67
2024/01/23 08:30:39;;;;;;;3.43;1.40;;;;;;;6.42;71.68;97442.38;5031788;28;20235;-67
2024/01/23 08:33:05;;;;;;;3.73;1.80;;;;;;;6.90;70.51;97438.34;5012586;28;20746;-67
2024/01/23 08:35:30;;;;;;;7.60;3.30;;;;;;;7.97;65.91;97433.28;5022647;28;20271;-67
2024/01/23 08:37:56;;;;;;;4.87;2.40;;;;;;;8.65;62.96;97425.09;5026990;28;20242;-67
2024/01/23 08:40:21;;;;;;;3.00;1.67;;;;;;;7.68;66.14;97431.16;5023895;28;20721;-66
2024/01/23 08:42:47;;;;;;;2.43;1.77;;;;;;;7.14;67.60;97436.31;5017764;28;20436;-67
2024/01/23 08:45:12;;;;;;;5.23;1.60;;;;;;;6.99;68.74;97422.59;5019665;28;20178;-66
2024/01/23 08:47:38;;;;;;;2.67;1.60;;;;;;;7.98;64.85;97426.28;5027217;28;20211;-67
2024/01/23 08:50:04;;;;;;;10.07;1.43;;;;;;;9.69;59.73;97431.56;5012244;28;20172;-66
2024/01/23 08:52:30;;;;;;;2.50;1.27;;;;;;;9.14;59.89;97432.81;5012537;28;20184;-67
2024/01/23 08:54:55;;;;;;;3.43;1.50;;;;;;;8.05;63.53;97439.25;5020469;28;21202;-66
2024/01/23 08:57:22;;;;;;;3.30;1.00;;;;;;;7.46;65.67;97448.03;5024201;28;20171;-69
2024/01/23 08:59:48;;;;;;;13.40;1.97;;;;;;;6.91;67.94;97454.88;5022849;28;21032;-68
2024/01/23 09:02:14;;;;;;;10.03;1.80;;;;;;;6.81;68.82;97456.72;5017752;28;20459;-68
2024/01/23 09:04:39;;;;;;;9.27;1.87;;;;;;;6.69;69.70;97464.69;5010706;28;20438;-66
2024/01/23 09:07:05;;;;;;;5.67;1.50;;;;;;;6.71;70.04;97474.22;5017789;28;20184;-68
2024/01/23 09:09:30;;;;;;;2.83;1.40;;;;;;;6.74;70.00;97474.19;5022456;28;20210;-67
2024/01/23 09:11:56;;;;;;;4.70;2.10;;;;;;;7.32;68.17;97467.38;5022198;28;20195;-68
2024/01/23 09:14:21;;;;;;;3.83;1.53;;;;;;;8.45;64.44;97474.31;5019545;28;20176;-67
2024/01/23 09:16:47;;;;;;;1.97;1.53;;;;;;;8.62;63.08;97477.50;5020276;28;20179;-66
2024/01/23 09:19:14;;;;;;;3.00;2.53;;;;;;;8.11;64.06;97474.88;5034973;28;20235;-67
2024/01/23 09:21:39;;;;;;;7.10;2.10;;;;;;;7.98;65.14;97479.44;5020798;28;20207;-67
2024/01/23 09:24:05;;;;;;;5.30;2.53;;;;;;;7.68;66.26;97491.25;5017529;28;20945;-66
2024/01/23 09:26:31;;;;;;;6.77;3.03;;;;;;;7.59;66.68;97487.00;5021312;28;20187;-68
2024/01/23 09:28:56;;;;;;;4.43;2.00;;;;;;;7.33;68.49;97492.59;5018652;28;20907;-66
2024/01/23 09:31:22;;;;;;;4.80;2.03;;;;;;;7.17;69.45;97504.13;5021408;28;20238;-66
2024/01/23 09:33:48;;;;;;;2.50;2.20;;;;;;;7.05;69.51;97504.28;5017860;28;20195;-67
2024/01/23 09:36:14;;;;;;;1.97;1.43;;;;;;;6.97;70.39;97507.84;5013435;28;20430;-66
2024/01/23 09:38:39;;;;;;;10.50;3.80;;;;;;;7.12;69.80;97508.53;5020338;28;20467;-67
2024/01/23 09:41:11;;;;;;;8.77;2.30;;;;;;;7.07;70.09;97516.44;5020546;28;20993;-65
2024/01/23 09:43:40;;;;;;;5.77;2.10;;;;;;;7.27;69.70;97517.91;5016263;28;20172;-65
2024/01/23 09:46:11;;;;;;;10.80;2.33;;;;;;;8.27;65.59;97515.56;5022508;28;20517;-67
2024/01/23 09:48:37;;;;;;;5.67;2.10;;;;;;;9.50;62.64;97505.38;5010184;28;20499;-67
2024/01/23 09:51:08;;;;;;;7.40;2.70;;;;;;;9.94;60.32;97508.75;5014150;28;21222;-66
2024/01/23 09:53:36;;;;;;;4.43;2.17;;;;;;;10.43;59.12;97511.09;5018933;28;20529;-69
2024/01/23 09:56:01;;;;;;;3.93;1.57;;;;;;;10.69;57.96;97507.78;5015451;28;20435;-66
2024/01/23 09:58:27;;;;;;;9.17;2.40;;;;;;;10.67;57.92;97517.47;5020095;28;20465;-67
2024/01/23 10:00:55;;;;;;;7.37;1.60;;;;;;;10.14;58.67;97525.75;5016403;28;20200;-67
2024/01/23 10:03:21;;;;;;;4.80;1.73;;;;;;;9.71;59.83;97525.00;5017517;28;20192;-66
2024/01/23 10:05:46;;;;;;;3.60;1.80;;;;;;;9.24;61.30;97526.03;5013175;28;21001;-66
2024/01/23 10:08:11;;;;;;;4.80;3.70;;;;;;;9.05;61.87;97529.00;5022017;28;20690;-66
2024/01/23 10:10:37;;;;;;;4.80;2.63;;;;;;;8.89;62.26;97543.28;5027698;28;20199;-67
2024/01/23 10:13:02;;;;;;;3.40;2.40;;;;;;;8.62;62.68;97537.69;5027908;28;20233;-67
2024/01/23 10:15:28;;;;;;;3.60;3.00;;;;;;;8.56;64.33;97529.91;5021448;28;20558;-67
2024/01/23 10:17:53;;;;;;;3.60;1.80;;;;;;;8.90;62.49;97530.19;5019303;28;20179;-67
2024/01/23 10:20:19;;;;;;;3.80;2.37;;;;;;;9.17;61.78;97533.13;5018856;28;20917;-67
2024/01/23 10:22:45;;;;;;;5.20;2.30;;;;;;;9.32;61.75;97526.72;5016791;28;20177;-67
2024/01/23 10:25:13;;;;;;;5.07;1.80;;;;;;;9.59;60.65;97513.91;5023591;28;20680;-66
2024/01/23 10:27:39;;;;;;;5.63;1.90;;;;;;;9.69;60.13;97513.69;5025164;28;20964;-67
2024/01/23 10:30:05;;;;;;;7.30;2.47;;;;;;;9.97;59.68;97513.06;5025163;28;20509;-67
2024/01/23 10:32:31;;;;;;;16.90;4.10;;;;;;;10.14;59.44;97516.13;5017559;28;20196;-67
2024/01/23 10:34:57;;;;;;;25.17;5.20;;;;;;;10.29;59.22;97511.44;5011898;28;20439;-66
2024/01/23 10:37:23;;;;;;;58.43;7.30;;;;;;;10.29;58.98;97507.03;5022459;28;20187;-66
2024/01/23 10:39:49;;;;;;;34.80;5.77;;;;;;;10.56;58.40;97510.75;5023088;28;20667;-67
2024/01/23 10:42:16;;;;;;;19.63;3.87;;;;;;;10.48;58.84;97514.47;5021669;28;20207;-65
2024/01/23 10:44:44;;;;;;;30.60;5.07;;;;;;;10.47;58.97;97525.88;5021562;28;20444;-66
2024/01/23 10:47:09;;;;;;;7.80;2.53;;;;;;;10.26;59.47;97522.84;5019860;28;20445;-67
2024/01/23 10:49:35;;;;;;;7.90;2.57;;;;;;;10.21;59.18;97518.63;5018415;28;20793;-67
2024/01/23 10:52:04;;;;;;;14.67;2.40;;;;;;;10.08;59.58;97516.25;5022467;28;20199;-67
2024/01/23 10:54:31;;;;;;;70.60;9.13;;;;;;;10.06;59.38;97504.09;5018035;28;20190;-68
2024/01/23 10:56:59;;;;;;;40.67;4.93;;;;;;;9.85;59.84;97493.22;5018034;28;20939;-68
2024/01/23 10:59:30;;;;;;;42.47;4.43;;;;;;;9.81;60.34;97499.44;5019758;28;20575;-67
2024/01/23 11:02:03;;;;;;;9.90;4.37;;;;;;;9.54;60.59;97500.91;5015992;28;20454;-67
2024/01/23 11:04:28;;;;;;;13.03;3.13;;;;;;;9.39;61.16;97501.25;5011755;28;20493;-67
2024/01/23 11:07:04;;;;;;;6.83;2.00;;;;;;;9.11;61.89;97505.31;5018716;28;20439;-66
2024/01/23 11:09:37;;;;;;;5.33;2.70;;;;;;;9.05;61.90;97497.59;5013817;28;20172;-64
2024/01/23 11:12:22;;;;;;;11.37;2.67;;;;;;;9.01;62.73;97498.53;5017171;28;20459;-65
2024/01/23 11:15:02;;;;;;;39.90;6.77;;;;;;;8.94;62.52;97489.06;5010965;28;20794;-64
2024/01/23 11:17:32;;;;;;;39.07;6.53;;;;;;;8.88;63.20;97490.06;5018677;28;20429;-65
2024/01/23 11:20:14;;;;;;;9.93;3.20;;;;;;;8.89;62.92;97491.78;5024197;28;20900;-66
2024/01/23 11:22:39;;;;;;;9.53;2.30;;;;;;;8.95;62.31;97490.78;5017387;28;20485;-66
2024/01/23 11:25:05;;;;;;;8.87;3.33;;;;;;;8.89;62.80;97490.94;5019545;28;20545;-66
2024/01/23 11:27:33;;;;;;;13.97;2.73;;;;;;;8.80;63.44;97493.72;5015075;28;20204;-67
2024/01/23 11:29:59;;;;;;;12.07;3.33;;;;;;;8.80;63.78;97496.34;5015820;28;20526;-63
2024/01/23 11:32:28;;;;;;;3.60;2.23;;;;;;;8.89;62.71;97485.69;5009799;28;20455;-66
2024/01/23 11:35:11;;;;;;;7.10;2.50;;;;;;;8.87;63.52;97482.25;5017284;28;20880;-66